Time;durP1;ratioP1;P1;durP2;ratioP2;P2;SDS_P1;SDS_P2;PMS_P1;PMS_P2;Temp;Humidity;BMP_temperature;BMP_pressure;BME280_temperature;BME280_humidity;BME280_pressure;Samples;Min_cycle;Max_cycle;Signal;HPM_P1;HPM_P2
2022/12/28 00:01:12;;;;;;;3.20;1.60;;;13.90;92.80;;;;;;5071256;28;20028;-67
2022/12/28 00:03:38;;;;;;;;;;;13.90;92.80;;;;;;5051610;28;20036;-66
2022/12/28 00:06:05;;;;;;;4.13;2.00;;;13.90;92.70;;;;;;5051097;28;19913;-67
2022/12/28 00:08:30;;;;;;;3.85;1.70;;;13.90;92.70;;;;;;5054165;28;20043;-66
2022/12/28 00:11:06;;;;;;;3.70;1.92;;;14.00;92.70;;;;;;5071176;28;20442;-68
2022/12/28 00:13:33;;;;;;;4.90;2.00;;;13.90;92.80;;;;;;5070875;28;20027;-67
2022/12/28 00:16:09;;;;;;;4.20;2.15;;;13.90;92.80;;;;;;5069218;28;20109;-68
2022/12/28 00:18:36;;;;;;;5.90;2.13;;;13.90;92.70;;;;;;5071760;28;20115;-66
2022/12/28 00:21:02;;;;;;;4.90;2.60;;;13.80;92.80;;;;;;5071895;28;20063;-66
2022/12/28 00:23:28;;;;;;;4.10;2.50;;;13.80;92.70;;;;;;5072009;28;20078;-66
2022/12/28 00:25:54;;;;;;;3.53;1.98;;;13.80;92.90;;;;;;5070599;28;20032;-65
2022/12/28 00:28:20;;;;;;;5.28;2.65;;;13.90;92.90;;;;;;5071783;28;20024;-66
2022/12/28 00:30:46;;;;;;;3.70;2.05;;;13.90;92.80;;;;;;5075432;28;20037;-66
2022/12/28 00:33:12;;;;;;;4.05;2.30;;;13.80;92.90;;;;;;5075702;28;20040;-68
2022/12/28 00:35:38;;;;;;;2.97;1.90;;;13.90;92.90;;;;;;5074625;28;20025;-66
2022/12/28 00:38:03;;;;;;;3.95;1.95;;;13.90;92.90;;;;;;5075429;28;20060;-66
2022/12/28 00:40:29;;;;;;;3.63;1.98;;;13.80;92.90;;;;;;5074304;28;20031;-66
2022/12/28 00:42:54;;;;;;;3.50;2.03;;;13.80;92.90;;;;;;5075213;28;20074;-65
2022/12/28 00:45:20;;;;;;;3.17;1.73;;;13.80;92.90;;;;;;5074269;28;20436;-68
2022/12/28 00:47:46;;;;;;;4.95;2.13;;;13.90;92.90;;;;;;5075435;28;20086;-65
2022/12/28 00:50:11;;;;;;;4.03;2.03;;;13.90;92.90;;;;;;5075300;28;20032;-67
2022/12/28 00:52:37;;;;;;;4.75;2.47;;;13.80;92.90;;;;;;5075138;28;20016;-66
2022/12/28 00:55:03;;;;;;;2.55;1.92;;;13.90;92.90;;;;;;5074264;28;20108;-65
2022/12/28 00:57:30;;;;;;;3.17;1.75;;;13.80;92.80;;;;;;5075097;28;20021;-67
2022/12/28 00:59:55;;;;;;;3.47;1.73;;;13.80;92.90;;;;;;5073674;28;20043;-68
2022/12/28 01:02:21;;;;;;;4.45;1.90;;;13.90;92.90;;;;;;5075137;28;20028;-66
2022/12/28 01:04:47;;;;;;;4.07;2.10;;;13.90;92.90;;;;;;5075071;28;20024;-67
2022/12/28 01:07:13;;;;;;;4.30;2.08;;;13.90;92.90;;;;;;5073955;28;20185;-66
2022/12/28 01:09:38;;;;;;;2.90;1.98;;;13.80;92.90;;;;;;5073808;28;20032;-66
2022/12/28 01:12:04;;;;;;;5.38;2.13;;;13.80;92.90;;;;;;5072973;28;20081;-66
2022/12/28 01:14:30;;;;;;;3.08;1.83;;;13.90;92.80;;;;;;5073804;28;20033;-66
2022/12/28 01:16:56;;;;;;;3.65;2.10;;;13.80;92.80;;;;;;5074838;28;20021;-66
2022/12/28 01:19:22;;;;;;;4.05;2.13;;;13.80;92.90;;;;;;5074441;28;20489;-66
2022/12/28 01:21:49;;;;;;;3.92;2.17;;;13.90;92.90;;;;;;5074934;28;20031;-69
2022/12/28 01:24:15;;;;;;;4.30;1.88;;;13.70;92.90;;;;;;5074765;28;20025;-65
2022/12/28 01:26:41;;;;;;;4.22;1.77;;;13.70;93.00;;;;;;5074851;28;20039;-67
2022/12/28 01:29:07;;;;;;;5.03;1.83;;;13.70;92.90;;;;;;5072790;28;20028;-69
2022/12/28 01:31:32;;;;;;;5.97;1.95;;;13.70;93.00;;;;;;5074431;28;20052;-65
2022/12/28 01:33:58;;;;;;;4.95;1.90;;;13.80;93.00;;;;;;5074570;28;20032;-67
2022/12/28 01:36:26;;;;;;;5.25;2.17;;;13.80;92.90;;;;;;5074685;28;20021;-67
2022/12/28 01:38:54;;;;;;;3.55;2.20;;;13.90;92.90;;;;;;5072800;28;20078;-66
2022/12/28 01:41:20;;;;;;;2.63;1.70;;;13.80;92.90;;;;;;5074049;28;20470;-67
2022/12/28 01:44:09;;;;;;;6.70;2.00;;;13.80;93.00;;;;;;5073928;28;20035;-68
2022/12/28 01:46:48;;;;;;;3.30;1.73;;;13.70;93.00;;;;;;5030227;28;20124;-67
2022/12/28 01:49:38;;;;;;;3.55;1.60;;;13.90;92.90;;;;;;5054160;28;20108;-66
2022/12/28 01:52:13;;;;;;;3.53;1.75;;;13.90;92.90;;;;;;5054294;28;20475;-65
2022/12/28 01:54:45;;;;;;;2.72;1.75;;;13.90;92.90;;;;;;5054212;28;20036;-65
2022/12/28 01:57:12;;;;;;;2.88;1.88;;;13.90;92.90;;;;;;5069356;28;20044;-66
2022/12/28 01:59:42;;;;;;;3.45;2.17;;;13.90;92.90;;;;;;5073294;28;20024;-67
2022/12/28 02:02:10;;;;;;;3.83;1.85;;;13.80;93.00;;;;;;5074027;28;20471;-66
2022/12/28 02:04:36;;;;;;;3.10;1.45;;;13.80;93.10;;;;;;5072694;28;20028;-66
2022/12/28 02:07:02;;;;;;;3.65;1.83;;;13.90;93.00;;;;;;5073453;28;20029;-66
2022/12/28 02:09:41;;;;;;;5.15;1.95;;;13.90;93.00;;;;;;5073607;28;20033;-66
2022/12/28 02:12:11;;;;;;;5.70;1.95;;;13.80;93.20;;;;;;5073895;28;20107;-65
2022/12/28 02:14:38;;;;;;;3.95;1.52;;;13.90;93.10;;;;;;5072163;28;20028;-66
2022/12/28 02:17:04;;;;;;;3.00;1.73;;;13.90;93.10;;;;;;5072556;28;20037;-66
2022/12/28 02:19:44;;;;;;;4.03;1.75;;;13.90;93.00;;;;;;5073781;28;20069;-66
2022/12/28 02:22:47;;;;;;;2.92;1.70;;;13.90;93.10;;;;;;5073735;28;20031;-66
2022/12/28 02:25:36;;;;;;;1.75;1.25;;;13.90;93.10;;;;;;5073553;28;20025;-66
2022/12/28 02:28:16;;;;;;;3.78;1.70;;;13.90;93.20;;;;;;5062603;28;20112;-67
2022/12/28 02:31:10;;;;;;;2.55;1.48;;;13.80;93.30;;;;;;5056433;28;20033;-66
2022/12/28 02:34:18;;;;;;;2.13;1.60;;;13.80;93.30;;;;;;5071543;28;20043;-66
2022/12/28 02:36:53;;;;;;;3.10;1.50;;;13.90;93.30;;;;;;5030415;28;20044;-66
2022/12/28 02:39:29;;;;;;;4.32;1.88;;;13.80;93.30;;;;;;5063616;28;20074;-66
2022/12/28 02:41:56;;;;;;;3.88;1.58;;;13.80;93.30;;;;;;5072299;28;20060;-66
2022/12/28 02:50:05;;;;;;;3.17;1.45;;;13.90;93.30;;;;;;5072897;28;20502;-65
2022/12/28 02:52:45;;;;;;;2.72;1.67;;;13.90;93.30;;;;;;5071747;28;20070;-66
2022/12/28 02:58:38;;;;;;;4.07;1.30;;;13.80;93.50;;;;;;5052924;28;20040;-66
2022/12/28 03:01:16;;;;;;;1.83;1.20;;;13.80;93.50;;;;;;5065620;28;20481;-65
2022/12/28 03:03:54;;;;;;;2.70;1.77;;;13.80;93.50;;;;;;5072532;28;20401;-66
2022/12/28 03:09:37;;;;;;;2.80;1.33;;;13.90;93.50;;;;;;5067012;28;20148;-66
2022/12/28 03:12:13;;;;;;;5.90;1.63;;;13.80;93.60;;;;;;5072699;28;20028;-66
2022/12/28 03:14:52;;;;;;;3.67;1.35;;;13.90;93.60;;;;;;5072613;28;20469;-66
2022/12/28 03:31:21;;;;;;;3.50;1.23;;;13.90;93.90;;;;;;5072214;28;20101;-66
2022/12/28 03:33:49;;;;;;;1.92;1.35;;;13.90;93.50;;;;;;5067777;28;20382;-66
2022/12/28 03:36:53;;;;;;;2.40;1.30;;;13.80;93.60;;;;;;5061221;28;20035;-66
2022/12/28 03:39:29;;;;;;;3.95;1.27;;;13.90;93.70;;;;;;5070866;28;20104;-66
2022/12/28 03:44:54;;;;;;;2.97;1.15;;;13.90;93.60;;;;;;5072603;28;20500;-66
2022/12/28 03:47:23;;;;;;;3.33;1.00;;;14.00;93.70;;;;;;5071209;28;20021;-67
2022/12/28 03:49:49;;;;;;;1.88;1.08;;;13.90;93.70;;;;;;5071994;28;20044;-66
2022/12/28 03:52:14;;;;;;;2.80;1.10;;;13.90;93.70;;;;;;5072225;28;20020;-66
2022/12/28 03:54:40;;;;;;;2.10;1.13;;;13.90;93.70;;;;;;5070952;28;20035;-66
2022/12/28 03:57:06;;;;;;;1.83;1.05;;;13.90;93.70;;;;;;5070973;28;20043;-66
2022/12/28 03:59:31;;;;;;;2.78;1.00;;;13.90;93.70;;;;;;5072110;28;20040;-66
2022/12/28 04:01:57;;;;;;;2.78;1.33;;;14.00;93.70;;;;;;5071812;28;20032;-66
2022/12/28 04:04:22;;;;;;;2.13;1.05;;;13.90;93.70;;;;;;5072932;28;20090;-66
2022/12/28 04:06:48;;;;;;;2.40;0.95;;;13.90;93.80;;;;;;5075249;28;20177;-65
2022/12/28 04:09:14;;;;;;;2.65;1.15;;;14.00;93.70;;;;;;5075661;28;20044;-66
2022/12/28 04:11:39;;;;;;;2.67;0.93;;;13.90;93.70;;;;;;5075709;28;20104;-66
2022/12/28 04:14:05;;;;;;;2.55;1.05;;;13.90;93.80;;;;;;5076210;28;20465;-66
2022/12/28 04:16:31;;;;;;;1.85;0.90;;;13.90;93.80;;;;;;5074860;28;20130;-66
2022/12/28 04:18:56;;;;;;;2.22;0.70;;;13.80;93.80;;;;;;5075056;28;20066;-66
2022/12/28 04:21:22;;;;;;;2.58;1.05;;;13.90;93.80;;;;;;5075593;28;20016;-66
2022/12/28 04:23:47;;;;;;;1.80;0.90;;;13.90;93.80;;;;;;5075072;28;20541;-66
2022/12/28 04:26:15;;;;;;;2.95;1.00;;;13.90;93.80;;;;;;5075940;28;20147;-66
2022/12/28 04:28:41;;;;;;;2.85;1.00;;;13.90;93.80;;;;;;5074684;28;20454;-66
2022/12/28 04:31:09;;;;;;;1.60;0.60;;;13.90;93.80;;;;;;5075514;28;20127;-67
2022/12/28 04:33:36;;;;;;;2.28;0.80;;;13.90;93.80;;;;;;5074346;28;20024;-66
2022/12/28 04:36:09;;;;;;;2.13;0.75;;;13.90;93.90;;;;;;5073301;28;20461;-65
2022/12/28 04:38:35;;;;;;;3.58;1.13;;;14.00;93.80;;;;;;5073638;28;20031;-66
2022/12/28 04:41:02;;;;;;;2.25;0.70;;;14.00;93.90;;;;;;5075585;28;20154;-66
2022/12/28 04:43:32;;;;;;;1.50;0.90;;;13.90;93.90;;;;;;5075426;28;20031;-66
2022/12/28 04:46:03;;;;;;;3.30;1.15;;;13.90;94.00;;;;;;5074356;28;21759;-66
2022/12/28 04:48:29;;;;;;;2.17;0.63;;;13.90;94.00;;;;;;5075213;28;20032;-66
2022/12/28 04:50:55;;;;;;;2.58;0.95;;;13.90;93.90;;;;;;5074423;28;20405;-66
2022/12/28 04:53:21;;;;;;;3.50;0.93;;;13.90;94.00;;;;;;5074760;28;20036;-66
2022/12/28 04:55:47;;;;;;;3.28;0.90;;;13.90;93.90;;;;;;5075023;28;20036;-66
2022/12/28 04:58:13;;;;;;;3.83;0.88;;;13.90;93.90;;;;;;5074342;28;20028;-66
2022/12/28 05:00:39;;;;;;;2.03;0.90;;;14.00;94.00;;;;;;5075241;28;20036;-66
2022/12/28 05:03:04;;;;;;;2.40;0.90;;;13.90;94.00;;;;;;5075222;28;20035;-66
2022/12/28 05:05:30;;;;;;;1.10;0.65;;;14.00;94.00;;;;;;5074394;28;20033;-66
2022/12/28 05:08:00;;;;;;;1.67;0.60;;;13.90;94.00;;;;;;5074914;28;20021;-66
2022/12/28 05:10:26;;;;;;;1.15;0.50;;;14.00;93.90;;;;;;5072822;28;20060;-67
2022/12/28 05:12:54;;;;;;;2.28;0.80;;;14.00;93.90;;;;;;5075017;28;20063;-66
2022/12/28 05:15:19;;;;;;;2.35;0.57;;;14.00;94.00;;;;;;5073077;28;20397;-66
2022/12/28 05:17:45;;;;;;;2.05;0.70;;;14.00;93.90;;;;;;5074716;28;20485;-68
2022/12/28 05:20:11;;;;;;;1.48;0.68;;;14.00;93.90;;;;;;5073861;28;20059;-67
2022/12/28 05:22:36;;;;;;;1.65;0.88;;;14.00;93.90;;;;;;5074348;28;20028;-66
2022/12/28 05:25:02;;;;;;;2.35;0.93;;;14.00;93.90;;;;;;5074602;28;20028;-67
2022/12/28 05:27:28;;;;;;;1.83;0.60;;;14.00;93.90;;;;;;5073503;28;20037;-68
2022/12/28 05:29:53;;;;;;;2.10;0.75;;;14.00;93.90;;;;;;5054542;28;20041;-68
2022/12/28 05:32:19;;;;;;;2.65;0.80;;;14.00;93.90;;;;;;5063254;28;20048;-67
2022/12/28 05:34:44;;;;;;;3.92;1.05;;;14.00;94.00;;;;;;5073632;28;20409;-67
2022/12/28 05:37:10;;;;;;;2.25;0.60;;;14.00;94.00;;;;;;5073620;28;20028;-67
2022/12/28 05:39:36;;;;;;;2.35;0.52;;;14.00;94.00;;;;;;5073939;28;20088;-66
2022/12/28 05:42:02;;;;;;;2.03;0.52;;;14.10;94.00;;;;;;5074203;28;20530;-66
2022/12/28 05:44:28;;;;;;;2.42;0.50;;;14.00;94.00;;;;;;5073436;28;20032;-67
2022/12/28 05:46:54;;;;;;;2.28;0.77;;;14.00;94.00;;;;;;5074560;28;20024;-67
2022/12/28 05:49:20;;;;;;;2.33;0.75;;;13.90;94.30;;;;;;5074356;28;20033;-66
2022/12/28 05:51:48;;;;;;;1.10;0.60;;;14.00;94.20;;;;;;5072660;28;20048;-68
2022/12/28 05:54:14;;;;;;;1.17;0.50;;;14.00;93.90;;;;;;5073987;28;20028;-68
2022/12/28 05:56:39;;;;;;;2.33;0.47;;;14.00;93.70;;;;;;5074071;28;20075;-68
2022/12/28 05:59:06;;;;;;;2.00;0.80;;;14.10;93.50;;;;;;5074113;28;20029;-67
2022/12/28 06:01:35;;;;;;;2.75;0.70;;;14.10;93.30;;;;;;5065890;28;20021;-66
2022/12/28 06:04:03;;;;;;;1.70;0.98;;;14.20;93.30;;;;;;5068747;28;20029;-66
2022/12/28 06:06:32;;;;;;;3.38;0.80;;;14.20;93.00;;;;;;5071837;28;20104;-68
2022/12/28 06:08:57;;;;;;;3.28;0.70;;;14.30;93.00;;;;;;5072027;28;20395;-66
2022/12/28 06:11:25;;;;;;;2.17;0.47;;;14.30;92.90;;;;;;5072406;28;20107;-67
2022/12/28 06:13:51;;;;;;;3.58;0.70;;;14.40;92.80;;;;;;5073635;28;20458;-67
2022/12/28 06:16:29;;;;;;;2.95;0.60;;;14.40;92.90;;;;;;5073597;28;20537;-67
2022/12/28 06:18:55;;;;;;;1.75;0.50;;;14.30;92.90;;;;;;5071446;28;20451;-67
2022/12/28 06:21:25;;;;;;;1.92;0.50;;;14.40;93.00;;;;;;5073735;28;20032;-66
2022/12/28 06:23:51;;;;;;;1.83;0.50;;;14.40;93.00;;;;;;5073469;28;20091;-66
2022/12/28 06:26:19;;;;;;;2.90;0.60;;;14.30;93.00;;;;;;5071890;28;20081;-65
2022/12/28 06:28:46;;;;;;;1.92;0.50;;;14.40;92.90;;;;;;5073128;28;20036;-67
2022/12/28 06:31:17;;;;;;;2.22;0.65;;;14.30;92.80;;;;;;5072329;28;20041;-67
2022/12/28 06:33:45;;;;;;;2.10;0.30;;;14.40;93.00;;;;;;5072329;28;20049;-66
2022/12/28 06:36:19;;;;;;;2.38;0.63;;;14.40;92.80;;;;;;5072893;28;20024;-66
2022/12/28 06:38:45;;;;;;;2.13;0.38;;;14.40;92.90;;;;;;5073158;28;20025;-66
2022/12/28 06:41:12;;;;;;;2.53;0.60;;;14.40;92.90;;;;;;5070962;28;20035;-66
2022/12/28 06:43:40;;;;;;;1.98;0.43;;;14.50;92.90;;;;;;5065094;28;20541;-66
2022/12/28 06:46:06;;;;;;;1.35;0.50;;;14.40;92.90;;;;;;5067124;28;20029;-66
2022/12/28 06:48:33;;;;;;;2.22;0.30;;;14.40;92.80;;;;;;5069404;28;20107;-65
2022/12/28 06:51:05;;;;;;;2.63;0.40;;;14.40;92.90;;;;;;5071434;28;20040;-66
2022/12/28 06:53:33;;;;;;;4.45;0.80;;;14.40;92.90;;;;;;5072475;28;20031;-68
2022/12/28 06:56:04;;;;;;;2.60;0.70;;;14.40;93.20;;;;;;5072505;28;20060;-66
2022/12/28 06:58:31;;;;;;;3.33;0.75;;;14.40;93.10;;;;;;5073039;28;20104;-66
2022/12/28 07:01:04;;;;;;;1.55;0.60;;;14.40;93.00;;;;;;5070717;28;20116;-66
2022/12/28 07:03:30;;;;;;;2.30;0.57;;;14.40;92.90;;;;;;5072750;28;20103;-65
2022/12/28 07:06:00;;;;;;;1.92;0.50;;;14.40;93.00;;;;;;5071756;28;20111;-66
2022/12/28 07:08:25;;;;;;;1.98;0.65;;;14.50;93.10;;;;;;5073074;28;20025;-66
2022/12/28 07:10:51;;;;;;;1.75;0.63;;;14.40;93.00;;;;;;5070800;28;20435;-66
2022/12/28 07:13:16;;;;;;;2.17;0.47;;;14.50;93.00;;;;;;5073025;28;20066;-66
2022/12/28 07:15:42;;;;;;;3.17;0.50;;;14.40;93.00;;;;;;5071397;28;20029;-66
2022/12/28 07:18:08;;;;;;;2.08;0.77;;;14.40;93.10;;;;;;5071467;28;20027;-66
2022/12/28 07:20:33;;;;;;;3.17;0.70;;;14.50;93.00;;;;;;5070795;28;20032;-70
2022/12/28 07:22:59;;;;;;;2.83;1.00;;;14.50;93.00;;;;;;5072613;28;20094;-67
2022/12/28 07:25:24;;;;;;;3.30;0.60;;;14.40;93.00;;;;;;5070500;28;20035;-67
2022/12/28 07:27:50;;;;;;;3.42;0.95;;;14.40;93.00;;;;;;5071824;28;20022;-66
2022/12/28 07:30:16;;;;;;;3.90;0.88;;;14.40;93.10;;;;;;5070398;28;20099;-65
2022/12/28 07:32:42;;;;;;;2.08;0.73;;;14.40;93.00;;;;;;5071008;28;20035;-66
2022/12/28 07:35:08;;;;;;;3.08;0.75;;;14.40;93.10;;;;;;5072486;28;20021;-66
2022/12/28 07:37:34;;;;;;;2.40;0.55;;;14.40;93.00;;;;;;5072540;28;20036;-67
2022/12/28 07:40:00;;;;;;;5.00;1.10;;;14.40;93.10;;;;;;5071839;28;20021;-66
2022/12/28 07:42:27;;;;;;;6.38;1.23;;;14.20;93.60;;;;;;5070910;28;20025;-66
2022/12/28 07:44:53;;;;;;;3.75;1.45;;;14.10;93.70;;;;;;5071411;28;20176;-68
2022/12/28 07:47:19;;;;;;;4.53;0.90;;;14.00;94.00;;;;;;5070663;28;20594;-66
2022/12/28 07:49:44;;;;;;;5.15;1.55;;;14.00;93.90;;;;;;5071173;28;20090;-66
2022/12/28 07:52:10;;;;;;;5.80;1.65;;;14.00;94.10;;;;;;5053872;28;20021;-66
2022/12/28 07:54:36;;;;;;;5.40;1.30;;;13.80;94.30;;;;;;5052360;28;20029;-66
2022/12/28 07:57:01;;;;;;;6.28;1.40;;;13.90;94.40;;;;;;5070153;28;20031;-66
2022/12/28 07:59:27;;;;;;;5.32;1.20;;;13.80;94.50;;;;;;5071830;28;20070;-66
2022/12/28 08:01:53;;;;;;;5.00;2.40;;;13.80;94.40;;;;;;5073757;28;20038;-65
2022/12/28 08:04:18;;;;;;;4.82;1.73;;;13.80;94.50;;;;;;5075899;28;20017;-66
2022/12/28 08:06:45;;;;;;;7.80;2.00;;;13.80;94.50;;;;;;5064983;28;20033;-67
2022/12/28 08:09:14;;;;;;;4.45;2.00;;;13.70;94.70;;;;;;5072139;28;20028;-67
2022/12/28 08:11:44;;;;;;;4.13;1.00;;;13.80;94.70;;;;;;5071408;28;20037;-65
2022/12/28 08:14:11;;;;;;;8.02;1.70;;;13.90;94.60;;;;;;5072035;28;20025;-66
2022/12/28 08:16:42;;;;;;;5.78;1.60;;;13.80;94.60;;;;;;5071436;28;20047;-67
2022/12/28 08:19:08;;;;;;;6.30;1.38;;;13.80;94.60;;;;;;5071880;28;20033;-66
2022/12/28 08:21:37;;;;;;;4.53;1.23;;;13.90;94.50;;;;;;5071596;28;20032;-66
2022/12/28 08:24:04;;;;;;;4.93;1.20;;;13.70;94.70;;;;;;5071833;28;20111;-66
2022/12/28 08:26:35;;;;;;;3.40;1.17;;;13.80;94.60;;;;;;5071830;28;20024;-65
2022/12/28 08:29:04;;;;;;;5.53;1.30;;;13.70;94.80;;;;;;5070008;28;20362;-65
2022/12/28 08:31:36;;;;;;;5.85;1.33;;;13.60;95.00;;;;;;5069195;28;20041;-66
2022/12/28 08:34:03;;;;;;;8.02;1.83;;;13.60;95.00;;;;;;5071255;28;20025;-66
2022/12/28 08:36:29;;;;;;;3.38;1.13;;;13.60;95.60;;;;;;5070876;28;20032;-65
2022/12/28 08:38:56;;;;;;;3.97;1.17;;;13.70;95.40;;;;;;5070469;28;20021;-66
2022/12/28 08:41:23;;;;;;;5.57;1.13;;;13.70;95.40;;;;;;5071843;28;20017;-66
2022/12/28 08:43:51;;;;;;;13.52;1.90;;;13.80;95.60;;;;;;5071312;28;20398;-67
2022/12/28 08:46:22;;;;;;;5.32;1.58;;;13.80;95.70;;;;;;5067596;28;20059;-65
2022/12/28 08:48:49;;;;;;;5.25;1.48;;;13.80;95.70;;;;;;5070357;28;20370;-66
2022/12/28 08:51:18;;;;;;;6.43;1.35;;;13.80;95.70;;;;;;5075083;28;20114;-67
2022/12/28 08:53:45;;;;;;;5.90;1.63;;;13.90;95.50;;;;;;5071525;28;20029;-66
2022/12/28 08:56:14;;;;;;;3.70;1.00;;;14.00;95.40;;;;;;5073664;28;20020;-65
2022/12/28 08:58:42;;;;;;;8.43;1.98;;;14.00;95.30;;;;;;5075085;28;20055;-66
2022/12/28 09:01:10;;;;;;;6.68;1.30;;;14.10;95.40;;;;;;5075473;28;20025;-65
2022/12/28 09:03:38;;;;;;;6.10;1.17;;;14.00;95.30;;;;;;5072976;28;20020;-66
2022/12/28 09:06:05;;;;;;;6.30;1.20;;;14.20;95.40;;;;;;5074898;28;20388;-67
2022/12/28 09:08:31;;;;;;;3.97;0.70;;;14.20;95.40;;;;;;5073069;28;20032;-67
2022/12/28 09:11:01;;;;;;;6.28;0.98;;;14.20;95.50;;;;;;5073594;28;20403;-66
2022/12/28 09:13:28;;;;;;;4.63;1.05;;;14.20;95.50;;;;;;5071949;28;20081;-65
2022/12/28 09:15:59;;;;;;;9.45;1.40;;;14.20;95.60;;;;;;5074507;28;20522;-65
2022/12/28 09:18:24;;;;;;;7.32;1.50;;;14.30;95.60;;;;;;5072320;28;20362;-67
2022/12/28 09:20:50;;;;;;;5.65;0.95;;;14.30;95.80;;;;;;5073622;28;20538;-65
2022/12/28 09:23:15;;;;;;;5.15;1.00;;;14.30;95.80;;;;;;5073023;28;20025;-64
2022/12/28 09:25:41;;;;;;;6.20;1.00;;;14.30;95.80;;;;;;5073934;28;20024;-66
2022/12/28 09:28:07;;;;;;;6.55;1.48;;;14.40;95.90;;;;;;5069983;28;20087;-68
2022/12/28 09:30:32;;;;;;;5.82;1.10;;;14.40;95.90;;;;;;5072635;28;20052;-65
2022/12/28 09:35:59;;;;;;;5.88;1.60;;;14.50;96.00;;;;;;5012068;28;20171;-66
2022/12/28 09:38:25;;;;;;;3.83;1.23;;;14.50;96.00;;;;;;5061654;28;20116;-65
2022/12/28 09:40:50;;;;;;;4.65;1.10;;;14.50;96.00;;;;;;5074405;28;20036;-64
2022/12/28 09:43:17;;;;;;;5.28;1.13;;;14.60;96.00;;;;;;5072243;28;20024;-64
2022/12/28 09:45:43;;;;;;;6.10;1.52;;;14.60;96.00;;;;;;5073829;28;20059;-65
2022/12/28 09:48:14;;;;;;;4.57;1.20;;;14.60;96.00;;;;;;5073437;28;20021;-66
2022/12/28 09:50:40;;;;;;;2.10;0.98;;;14.60;96.00;;;;;;5071252;28;20498;-65
2022/12/28 09:53:14;;;;;;;2.95;1.10;;;14.70;96.10;;;;;;5074307;28;20493;-66
2022/12/28 09:55:50;;;;;;;8.43;1.35;;;14.70;96.00;;;;;;5063224;28;20060;-64
2022/12/28 09:58:16;;;;;;;3.03;1.00;;;14.70;96.00;;;;;;5071396;28;20039;-64
2022/12/28 10:00:45;;;;;;;4.43;1.10;;;14.80;96.00;;;;;;5073524;28;20099;-64
2022/12/28 10:03:17;;;;;;;5.85;1.05;;;14.70;95.90;;;;;;5073367;28;20397;-66
2022/12/28 10:05:43;;;;;;;;;;;14.80;95.90;;;;;;5054820;28;20095;-64
2022/12/28 10:08:13;;;;;;;3.95;1.15;;;14.80;95.90;;;;;;5071515;28;19908;-65
2022/12/28 10:10:40;;;;;;;4.00;0.90;;;14.80;95.90;;;;;;5062657;28;20028;-63
2022/12/28 10:13:21;;;;;;;3.22;0.90;;;14.90;95.90;;;;;;5073597;28;20028;-64
2022/12/28 10:15:47;;;;;;;2.60;0.88;;;14.80;95.90;;;;;;5073070;28;20495;-64
2022/12/28 10:18:14;;;;;;;11.95;1.38;;;14.90;95.90;;;;;;5067817;28;20029;-67
2022/12/28 10:20:43;;;;;;;3.40;0.82;;;14.90;96.00;;;;;;5073520;28;20039;-64
2022/12/28 10:23:17;;;;;;;5.43;1.15;;;14.90;96.00;;;;;;5070167;28;20047;-65
2022/12/28 10:25:43;;;;;;;7.78;1.13;;;14.90;96.10;;;;;;5071116;28;20088;-63
2022/12/28 10:28:10;;;;;;;5.32;1.27;;;14.90;96.20;;;;;;5073501;28;20096;-64
2022/12/28 10:31:01;;;;;;;8.15;3.63;;;14.90;96.20;;;;;;5073190;28;20041;-64
2022/12/28 10:33:27;;;;;;;9.82;4.50;;;14.90;96.30;;;;;;5064140;28;20044;-64
2022/12/28 10:35:54;;;;;;;10.38;6.03;;;14.90;96.30;;;;;;5070248;28;20024;-64
2022/12/28 10:38:32;;;;;;;10.40;4.50;;;15.00;96.30;;;;;;5071064;28;20028;-63
2022/12/28 10:41:06;;;;;;;7.72;4.22;;;14.90;96.30;;;;;;5060881;28;20012;-64
2022/12/28 10:43:34;;;;;;;7.65;3.95;;;14.90;96.40;;;;;;5070728;28;20101;-64
2022/12/28 10:46:02;;;;;;;8.63;3.75;;;15.00;96.50;;;;;;5055161;28;20021;-64
2022/12/28 10:48:35;;;;;;;6.95;3.33;;;15.00;96.40;;;;;;5064783;28;20093;-64
2022/12/28 10:51:13;;;;;;;11.20;3.78;;;15.00;96.40;;;;;;5063327;28;20170;-63
2022/12/28 10:53:38;;;;;;;5.93;2.58;;;15.10;96.30;;;;;;5068444;28;20097;-62
2022/12/28 10:56:12;;;;;;;6.95;2.92;;;15.10;96.30;;;;;;5066519;28;20473;-62
2022/12/28 10:58:43;;;;;;;8.93;2.17;;;15.10;96.20;;;;;;5071484;28;20028;-62
2022/12/28 11:01:11;;;;;;;6.30;2.65;;;15.10;96.20;;;;;;5052193;28;20104;-63
2022/12/28 11:03:42;;;;;;;7.40;2.75;;;15.20;96.10;;;;;;5052306;28;20530;-63
2022/12/28 11:06:16;;;;;;;5.60;2.60;;;15.10;96.10;;;;;;5069846;28;20016;-64
2022/12/28 11:08:44;;;;;;;8.20;2.08;;;15.20;96.00;;;;;;5071305;28;20028;-62
2022/12/28 11:11:19;;;;;;;5.20;2.03;;;15.20;96.00;;;;;;5071216;28;20032;-62
2022/12/28 11:13:50;;;;;;;5.93;2.20;;;15.20;95.90;;;;;;5067948;28;20496;-62
2022/12/28 11:16:16;;;;;;;6.50;2.30;;;15.30;95.90;;;;;;5069753;28;20025;-62
2022/12/28 11:18:42;;;;;;;4.55;1.70;;;15.20;95.80;;;;;;5071223;28;20076;-62
2022/12/28 11:21:13;;;;;;;3.90;1.85;;;15.30;95.80;;;;;;5068305;28;20096;-62
2022/12/28 11:23:39;;;;;;;4.53;2.15;;;15.30;95.80;;;;;;5070570;28;20166;-61
2022/12/28 11:26:10;;;;;;;7.03;1.23;;;15.30;95.80;;;;;;5069437;28;20099;-62
2022/12/28 11:28:35;;;;;;;5.90;1.55;;;15.30;95.70;;;;;;5070863;28;20025;-62
2022/12/28 11:31:03;;;;;;;4.40;1.38;;;15.30;95.70;;;;;;5067582;28;20075;-62
2022/12/28 11:33:38;;;;;;;5.38;1.45;;;15.30;95.70;;;;;;5063234;28;20111;-62
2022/12/28 11:36:05;;;;;;;10.57;1.60;;;15.30;95.60;;;;;;5070001;28;20094;-63
2022/12/28 11:38:45;;;;;;;4.38;1.40;;;15.40;95.60;;;;;;5070760;28;20114;-63
2022/12/28 11:41:39;;;;;;;3.67;1.30;;;15.40;95.60;;;;;;5067777;28;20021;-62
2022/12/28 11:44:05;;;;;;;3.97;1.08;;;15.40;95.60;;;;;;5059187;28;20112;-62
2022/12/28 11:46:34;;;;;;;7.13;1.63;;;15.40;95.50;;;;;;5067906;28;20422;-64
2022/12/28 11:49:04;;;;;;;6.63;1.55;;;15.40;95.50;;;;;;5069853;28;20035;-62
2022/12/28 11:51:34;;;;;;;3.80;1.02;;;15.30;95.50;;;;;;5069964;28;20032;-65
2022/12/28 11:54:35;;;;;;;8.20;1.45;;;15.20;95.60;;;;;;5069419;28;20024;-63
2022/12/28 11:57:02;;;;;;;7.22;1.77;;;15.20;95.70;;;;;;5062687;28;20086;-66
2022/12/28 11:59:33;;;;;;;8.77;1.75;;;15.20;95.80;;;;;;5060149;28;20440;-66
2022/12/28 12:02:18;;;;;;;17.85;2.63;;;15.20;96.10;;;;;;5067320;28;20037;-65
2022/12/28 12:04:45;;;;;;;10.27;1.75;;;15.30;96.70;;;;;;5067917;28;20492;-64
2022/12/28 12:07:23;;;;;;;13.35;1.80;;;15.50;97.20;;;;;;5066103;28;20020;-64
2022/12/28 12:10:28;;;;;;;10.30;2.75;;;15.50;97.90;;;;;;5068333;28;20036;-65
2022/12/28 12:12:54;;;;;;;8.77;2.47;;;15.50;97.90;;;;;;5067984;28;20033;-65
2022/12/28 12:15:51;;;;;;;12.75;3.17;;;15.40;97.80;;;;;;5066907;28;20029;-65
2022/12/28 12:18:22;;;;;;;11.93;2.30;;;15.50;97.80;;;;;;5056797;28;20048;-66
2022/12/28 12:21:09;;;;;;;14.52;2.15;;;15.50;97.80;;;;;;5068163;28;20041;-67
2022/12/28 12:24:11;;;;;;;9.35;2.15;;;15.50;97.70;;;;;;5066787;28;20021;-66
2022/12/28 12:26:39;;;;;;;;;;;15.50;97.70;;;;;;5068629;28;20025;-66
2022/12/28 12:29:17;;;;;;;5.22;1.83;;;15.60;97.60;;;;;;5072620;28;20490;-65
2022/12/28 12:31:56;;;;;;;10.32;1.60;;;15.60;97.50;;;;;;5071804;28;20379;-66
2022/12/28 12:34:40;;;;;;;6.80;1.40;;;15.60;97.50;;;;;;5072018;28;20025;-66
2022/12/28 12:37:14;;;;;;;5.32;1.58;;;15.60;97.50;;;;;;5070217;28;20029;-66
2022/12/28 12:40:06;;;;;;;4.50;1.42;;;15.60;97.40;;;;;;5071991;28;20029;-65
2022/12/28 12:43:00;;;;;;;5.72;1.25;;;15.60;97.20;;;;;;5070123;28;20132;-67
2022/12/28 12:45:43;;;;;;;5.13;1.80;;;15.70;97.10;;;;;;5072803;28;20027;-67
2022/12/28 12:48:28;;;;;;;8.90;2.15;;;15.50;96.90;;;;;;5069350;28;20028;-66
2022/12/28 12:51:22;;;;;;;6.75;1.85;;;15.50;96.80;;;;;;5069206;28;20131;-65
2022/12/28 12:54:03;;;;;;;7.93;1.13;;;15.40;96.70;;;;;;5070874;28;20024;-65
2022/12/28 12:56:45;;;;;;;6.30;1.42;;;15.30;96.50;;;;;;5070991;28;20036;-65
2022/12/28 12:59:38;;;;;;;8.53;1.60;;;15.40;96.50;;;;;;5067271;28;20016;-64
2022/12/28 13:02:32;;;;;;;9.40;2.17;;;15.30;96.60;;;;;;5063869;28;20045;-65
2022/12/28 13:05:02;;;;;;;8.23;1.13;;;15.30;96.30;;;;;;5072253;28;20039;-64
2022/12/28 13:07:28;;;;;;;8.20;1.73;;;15.40;96.40;;;;;;5065707;28;20044;-63
2022/12/28 13:09:58;;;;;;;5.90;1.08;;;15.40;96.10;;;;;;5067989;28;20032;-66
2022/12/28 13:12:24;;;;;;;8.02;2.20;;;15.40;96.10;;;;;;5066485;28;20131;-67
2022/12/28 13:15:02;;;;;;;7.85;1.55;;;15.40;96.20;;;;;;5069866;28;20035;-64
2022/12/28 13:17:28;;;;;;;10.50;1.30;;;15.40;96.10;;;;;;5069737;28;20067;-66
2022/12/28 13:20:09;;;;;;;8.25;1.80;;;15.50;96.30;;;;;;5065451;28;20028;-65
2022/12/28 13:22:35;;;;;;;8.55;1.58;;;15.50;95.50;;;;;;5061565;28;20386;-68
2022/12/28 13:25:01;;;;;;;6.60;1.20;;;15.50;94.90;;;;;;5072240;28;20040;-66
2022/12/28 13:27:34;;;;;;;5.50;1.33;;;15.50;95.00;;;;;;5071217;28;20050;-64
2022/12/28 13:30:00;;;;;;;6.85;1.80;;;15.60;95.00;;;;;;5056217;28;20076;-64
2022/12/28 13:32:27;;;;;;;6.30;1.45;;;15.70;94.90;;;;;;5069185;28;20025;-64
2022/12/28 13:34:53;;;;;;;4.18;1.23;;;15.70;94.80;;;;;;5070617;28;20511;-63